Home > Products > Valid Products > TAF

000
FTUS43 KMPX 200200 AAA
TAFMSP
TAF AMD
KMSP 200255Z 2003/2106 14005KT 5SM BR SCT008 OVC012
     FM200900 14005KT 3SM BR OVC007
     FM201500 16008KT 6SM BR BKN008 OVC012
     FM202000 16007KT P6SM OVC014
     FM210100 16007KT 6SM BR OVC007=



000
FTUS43 KMPX 192300
TAFAXN
TAF
KAXN 192329Z 2000/2024 17010KT 3SM BR OVC005
     FM200400 17008KT 1SM BR OVC002
     FM201500 18008KT 4SM BR OVC007
     FM202000 18009KT 6SM HZ OVC015=



000
FTUS43 KMPX 192300
TAFSTC
TAF
KSTC 192329Z 2000/2024 14007KT 4SM BR OVC008
     FM200500 15005KT 2SM BR OVC004
     FM201500 17007KT 4SM BR OVC009
     FM202000 17007KT 6SM HZ OVC015=



000
FTUS43 KMPX 192300
TAFEAU
TAF
KEAU 192329Z 2000/2024 16005KT P6SM OVC020
     FM200500 15004KT 6SM BR OVC013
     FM201000 15005KT 5SM BR OVC008
     FM202000 16005KT P6SM OVC015=



000
FTUS43 KMPX 192300
TAFRWF
TAF
KRWF 192329Z 2000/2024 15006KT 5SM BR SCT008 OVC012
     FM200300 16009KT 4SM BR OVC008
     FM200900 15008KT 2SM BR OVC004
     FM201500 17008KT 5SM BR OVC008
     FM202000 18009KT P6SM OVC015=



000
FTUS43 KMPX 192300
TAFMSP
TAF
KMSP 192329Z 2000/2106 14006KT 6SM BR BKN013 OVC025
     FM200300 15006KT 5SM BR BKN008 OVC012
     FM200900 14005KT 3SM BR OVC006
     FM201500 16008KT 6SM BR BKN008 OVC012
     FM202000 16007KT P6SM OVC014
     FM210100 16007KT 6SM BR OVC007=



000
FTUS43 KMPX 192200 AAB
TAFMSP
TAF AMD
KMSP 192233Z 1923/2024 14006KT P6SM BKN013 OVC025
     FM200300 15006KT 5SM BR BKN008 OVC012
     FM200900 14005KT 3SM BR OVC006
     FM202000 16007KT 6SM BR OVC014=



000
FTUS43 KMPX 192100 AAA
TAFRWF
TAF AMD
KRWF 192104Z 1921/2018 17009KT 5SM BR SCT008 OVC012
     FM200300 16009KT 4SM BR OVC008
     FM200900 15008KT 3SM BR OVC004=



000
FTUS43 KMPX 192000 AAA
TAFMSP
TAF AMD
KMSP 192058Z 1921/2024 14006KT P6SM OVC014
     FM200300 15006KT 5SM BR BKN008 OVC012
     FM200900 14005KT 3SM BR OVC006
     FM202000 16007KT 6SM BR OVC014=



000
FTUS43 KMPX 191700
TAFAXN
TAF
KAXN 191737Z 1918/2018 16010KT 1SM BR OVC003
     FM192200 16009KT 3SM BR OVC007
     FM200400 17008KT 1SM BR OVC002=



000
FTUS43 KMPX 191700
TAFRWF
TAF
KRWF 191737Z 1918/2018 16009KT 4SM BR OVC008
     FM200600 15008KT 3SM BR OVC004=



000
FTUS43 KMPX 191700
TAFSTC
TAF
KSTC 191737Z 1918/2018 14007KT 4SM BR OVC008
     FM200600 15005KT 2SM BR OVC004=



000
FTUS43 KMPX 191700
TAFEAU
TAF
KEAU 191737Z 1918/2018 17004KT P6SM BKN015 OVC050
     FM192000 16005KT P6SM OVC020
     FM200500 15004KT 6SM BR OVC013
     FM201000 15005KT 5SM BR OVC008=



000
FTUS43 KMPX 191700
TAFMSP
TAF
KMSP 191737Z 1918/2024 15006KT P6SM OVC017
     FM200300 16006KT 5SM BR BKN008 OVC015
     FM200900 14005KT 3SM BR OVC006
     FM202000 16007KT 6SM BR OVC014=



000
FTUS43 KMPX 191400 AAB
TAFMSP
TAF AMD
KMSP 191447Z 1915/2018 15006KT P6SM OVC017
     FM200300 16006KT 5SM BR BKN008 OVC015
     FM200900 14005KT 3SM BR OVC006=



000
FTUS43 KMPX 191400 AAA
TAFEAU
TAF AMD
KEAU 191441Z 1915/2012 VRB03KT P6SM OVC012
     FM191600 17004KT P6SM SCT015 OVC050
     FM192000 16005KT P6SM OVC020
     FM200500 15004KT 5SM BR OVC007=



000
FTUS43 KMPX 191400 AAA
TAFRWF
TAF AMD
KRWF 191435Z 1915/2012 16007KT 6SM BR SCT010 OVC020
     FM200300 18007KT 4SM BR OVC006=



000
FTUS43 KMPX 191400 AAA
TAFSTC
TAF AMD
KSTC 191430Z 1915/2012 15006KT 5SM BR SCT006 OVC010
     FM191600 15006KT 4SM BR OVC008
     FM200600 16005KT 3SM BR OVC007=



000
FTUS43 KMPX 191400 AAA
TAFAXN
TAF AMD
KAXN 191425Z 1914/2012 15010KT 2SM BR OVC002
     FM191700 16010KT 5SM BR OVC007
     FM200300 17007KT 3SM BR OVC004=



000
FTUS43 KMPX 191300 AAA
TAFMSP
TAF AMD
KMSP 191303Z 1913/2018 14005KT P6SM SCT015 OVC040
      TEMPO 1913/1915 4SM -FZDZ BR OVC015
     FM191500 15006KT P6SM OVC017
     FM200300 16006KT 5SM BR BKN008 OVC015=



000
FTUS43 KMPX 191300 AAA
TAFMSP
TAF AMD
KMSP 191303Z 1913/2018 14005KT P6SM SCT015 OVC040
      TEMPO 1913/1915 4SM -FZDZ BR OVC015
     FM191500 15006KT P6SM OVC017
     FM200300 16006KT 5SM BR BKN008 OVC015=



000
FTUS43 KMPX 191100
TAFEAU
TAF
KEAU 191121Z 1912/2012 VRB03KT P6SM OVC012
     FM191400 17004KT P6SM -SN OVC015
     FM192000 16005KT P6SM OVC020=



000
FTUS43 KMPX 191100
TAFSTC
TAF
KSTC 191121Z 1912/2012 13006KT 5SM BR SCT007 OVC020
      TEMPO 1912/1914 2SM -SN BR OVC015
     FM191400 15006KT 5SM BR SCT006 OVC012
     FM191900 15006KT P6SM OVC010
     FM200300 16005KT 4SM BR OVC007=



000
FTUS43 KMPX 191100
TAFRWF
TAF
KRWF 191121Z 1912/2012 14007KT 6SM BR SCT006 OVC010
      TEMPO 1912/1915 3SM BR OVC007
     FM191800 17009KT P6SM BKN008 OVC015
     FM200600 18007KT 4SM BR OVC006=



000
FTUS43 KMPX 191100
TAFAXN
TAF
KAXN 191121Z 1912/2012 15008KT 4SM BR OVC006
      TEMPO 1912/1915 2SM BR OVC004
     FM191700 16010KT P6SM OVC007
     FM200300 17007KT 4SM BR OVC007=



000
FTUS43 KMPX 191100
TAFMSP
TAF
KMSP 191121Z 1912/2018 14005KT P6SM SCT015 OVC040
      TEMPO 1912/1914 5SM -SN BR OVC030
     FM191400 15005KT P6SM SCT015 OVC025
     FM191600 15006KT P6SM OVC017
     FM200300 16006KT 5SM BR BKN008 OVC015=



000
FTUS43 KMPX 190900 AAB
TAFAXN
TAF AMD
KAXN 190950Z 1910/2006 15008KT 4SM BR OVC007
      TEMPO 1910/1913 1SM -SN BR OVC005
     FM191600 17009KT P6SM OVC015=



000
FTUS43 KMPX 190900 AAB
TAFAXN
TAF AMD
KAXN 190950Z 1910/2006 15008KT 4SM BR OVC007
      TEMPO 1910/1913 1SM -SN BR OVC005
     FM191600 17009KT P6SM OVC015=



000
FTUS43 KMPX 190900 AAA
TAFAXN
TAF AMD
KAXN 190903Z 1909/2006 15008KT 4SM BR OVC007
     FM191600 17009KT P6SM OVC015=



000
FTUS43 KMPX 190900 AAA
TAFSTC
TAF AMD
KSTC 190902Z 1909/2006 15006KT P6SM SCT020 OVC035
      TEMPO 1909/1911 4SM -SN OVC025
     FM191200 16008KT P6SM OVC018=



000
FTUS43 KMPX 190700 AAA
TAFMSP
TAF AMD
KMSP 190723Z 1907/2012 14005KT P6SM FEW015 OVC070
     FM191000 14005KT P6SM SCT015 OVC035
     FM191300 16004KT P6SM SCT015 OVC030
     FM191800 16006KT P6SM OVC030=



000
FTUS43 KMPX 190600 AAA
TAFRWF
TAF AMD
KRWF 190610Z 1906/2006 14007KT P6SM OVC025
     FM190900 16007KT P6SM OVC020
     FM191800 17009KT P6SM OVC040=



000
FTUS43 KMPX 190500
TAFSTC
TAF
KSTC 190520Z 1906/2006 16004KT P6SM SCT025 OVC080
     FM190800 16006KT P6SM OVC025
     FM191600 16008KT P6SM OVC018=



000
FTUS43 KMPX 190500
TAFMSP
TAF
KMSP 190520Z 1906/2012 17005KT P6SM OVC017
     FM191000 14004KT P6SM OVC020
     FM191800 16006KT P6SM OVC030=



000
FTUS43 KMPX 190500
TAFAXN
TAF
KAXN 190520Z 1906/2006 15008KT P6SM OVC025
     FM190900 16005KT P6SM OVC012
     FM191600 17009KT P6SM OVC020=



000
FTUS43 KMPX 190500
TAFEAU
TAF
KEAU 190520Z 1906/2006 VRB02KT P6SM OVC015
     FM191600 18004KT P6SM OVC025=



000
FTUS43 KMPX 190500
TAFRWF
TAF
KRWF 190520Z 1906/2006 14005KT P6SM OVC035
     FM190900 16007KT P6SM OVC020
     FM191800 17009KT P6SM OVC040=



000
FTUS43 KMPX 190300 AAA
TAFMSP
TAF AMD
KMSP 190306Z 1903/2006 18004KT P6SM OVC015
     FM190600 17005KT P6SM OVC017
     FM191000 14004KT P6SM OVC020
     FM191800 16006KT P6SM OVC035=



000
FTUS43 KMPX 182300
TAFRWF
TAF
KRWF 182339Z 1900/1924 13005KT P6SM OVC070
     FM190600 16005KT P6SM OVC035
     FM190900 16007KT P6SM OVC020
     FM191800 17009KT P6SM OVC040=



000
FTUS43 KMPX 182300
TAFSTC
TAF
KSTC 182339Z 1900/1924 12003KT P6SM OVC018
     FM190600 16004KT 6SM BR OVC015
     FM191600 16008KT P6SM OVC018=



000
FTUS43 KMPX 182300
TAFAXN
TAF
KAXN 182339Z 1900/1924 13006KT P6SM BKN070
     FM190600 15006KT P6SM OVC015
     FM190900 16005KT P6SM OVC008
     FM191600 17009KT P6SM OVC020=



000
FTUS43 KMPX 182300
TAFEAU
TAF
KEAU 182339Z 1900/1924 VRB02KT P6SM OVC015
     FM191600 18004KT P6SM OVC025=



000
FTUS43 KMPX 182300
TAFMSP
TAF
KMSP 182339Z 1900/2006 15003KT P6SM OVC015
     FM190600 16005KT P6SM OVC035
     FM191000 14004KT P6SM OVC020
     FM191800 16006KT P6SM OVC035=



000
FTUS43 KMPX 182100 AAB
TAFMSP
TAF AMD
KMSP 182158Z 1822/1924 14004KT P6SM BKN015
     FM190000 14004KT P6SM SCT025 BKN090
     FM190600 16007KT P6SM BKN050=



000
FTUS43 KMPX 182100 AAB
TAFMSP
TAF AMD
KMSP 182158Z 1822/1924 14004KT P6SM BKN015
     FM190000 14004KT P6SM SCT025 BKN090
     FM190600 16007KT P6SM BKN050=



000
FTUS43 KMPX 182100 AAA
TAFSTC
TAF AMD
KSTC 182100Z 1821/1918 14003KT P6SM OVC018
     FM190000 17006KT P6SM SCT020 BKN050
     FM191200 17007KT P6SM BKN015=



000
FTUS43 KMPX 182000 AAA
TAFMSP
TAF AMD
KMSP 182032Z 1821/1924 13004KT P6SM BKN018
     FM182230 14004KT P6SM SCT025 BKN090
     FM190600 16007KT P6SM BKN050=



000
FTUS43 KMPX 181700 CCA
TAFSTC
TAF COR
KSTC 181727Z 1818/1918 16004KT 6SM -SN BKN020 OVC030
      TEMPO 1818/1819 2SM -SN
     FM182100 16004KT P6SM SCT020 BKN080
     FM190000 17006KT P6SM BKN050
     FM191200 17007KT P6SM BKN015=



000
FTUS43 KMPX 181700
TAFMSP
TAF
KMSP 181725Z 1818/1924 13004KT P6SM -SN BKN020 OVC035
      TEMPO 1818/1819 3SM -SN
     FM182100 14004KT P6SM SCT025 BKN090
     FM190600 16007KT P6SM BKN050=



000
FTUS43 KMPX 181700
TAFAXN
TAF
KAXN 181725Z 1818/1918 15006KT P6SM BKN070
     FM190600 15008KT P6SM OVC015=



000
FTUS43 KMPX 181700
TAFRWF
TAF
KRWF 181725Z 1818/1918 15005KT P6SM BKN050 OVC070
     FM190600 16005KT P6SM OVC015=



000
FTUS43 KMPX 181700
TAFSTC
TAF
KSTC 181725Z 1818/1918 16004KT P6SM -SN BKN015 OVC030
     FM182100 16004KT P6SM SCT020 BKN080
     FM190000 17006KT P6SM BKN050
     FM191200 17007KT P6SM BKN015=



000
FTUS43 KMPX 181700
TAFEAU
TAF
KEAU 181725Z 1818/1918 VRB02KT P6SM BKN015 OVC030
     FM190300 VRB02KT P6SM BKN025 BKN090=



000
FTUS43 KMPX 181600 AAC
TAFMSP
TAF AMD
KMSP 181612Z 1816/1918 13004KT P6SM -SN BKN018 OVC025
      TEMPO 1816/1818 2SM -SN
     FM190000 16004KT P6SM BKN025 BKN090
     FM190600 16003KT P6SM FEW025 BKN080
     FM191200 16005KT P6SM BKN040=



000
FTUS43 KMPX 181500 AAB
TAFSTC
TAF AMD
KSTC 181548Z 1816/1912 VRB03KT P6SM -SN OVC015
      TEMPO 1816/1818 2SM -SN
     FM181800 15004KT P6SM BKN025 BKN090
     FM190600 17003KT P6SM OVC040=



000
FTUS43 KMPX 181400 AAB
TAFMSP
TAF AMD
KMSP 181458Z 1815/1918 13004KT P6SM -SN BKN018 OVC025
      TEMPO 1815/1817 BKN015
     FM190000 16004KT P6SM BKN025 BKN090
     FM190600 16003KT P6SM FEW025 BKN080
     FM191200 16005KT P6SM BKN040=



000
FTUS43 KMPX 181400 AAA
TAFSTC
TAF AMD
KSTC 181404Z 1814/1912 VRB03KT P6SM OVC015
     FM181800 15004KT P6SM BKN025 BKN090
     FM190600 17003KT P6SM OVC040=



000
FTUS43 KMPX 181400 AAA
TAFSTC
TAF AMD
KSTC 181404Z 1814/1912 VRB03KT P6SM OVC015
     FM181800 15004KT P6SM BKN025 BKN090
     FM190600 17003KT P6SM OVC040=



000
FTUS43 KMPX 181400 AAA
TAFEAU
TAF AMD
KEAU 181403Z 1814/1912 VRB02KT P6SM BKN008 OVC015
     FM181600 VRB02KT P6SM BKN012 OVC020
     FM182300 VRB02KT P6SM SCT020 BKN150=



000
FTUS43 KMPX 181400 AAA
TAFEAU
TAF AMD
KEAU 181403Z 1814/1912 VRB02KT P6SM BKN008 OVC015
     FM181600 VRB02KT P6SM BKN012 OVC020
     FM182300 VRB02KT P6SM SCT020 BKN150=



000
FTUS43 KMPX 181400 AAA
TAFMSP
TAF AMD
KMSP 181401Z 1814/1918 12002KT P6SM -SN OVC015
     FM181600 14004KT P6SM BKN018 BKN110
     FM181800 14004KT P6SM SCT020 BKN110
     FM190600 16003KT P6SM FEW025 BKN080
     FM191200 16005KT P6SM BKN040=



000
FTUS43 KMPX 181400 AAA
TAFMSP
TAF AMD
KMSP 181401Z 1814/1918 12002KT P6SM -SN OVC015
     FM181600 14004KT P6SM BKN018 BKN110
     FM181800 14004KT P6SM SCT020 BKN110
     FM190600 16003KT P6SM FEW025 BKN080
     FM191200 16005KT P6SM BKN040=



000
FTUS43 KMPX 181100
TAFMSP
TAF
KMSP 181139Z 1812/1918 VRB03KT P6SM SCT020
      TEMPO 1812/1816 BKN020
     FM181600 14003KT P6SM SCT025 BKN120
     FM190600 16003KT P6SM FEW025 BKN800
     FM191200 16005KT P6SM BKN040=



000
FTUS43 KMPX 181100
TAFRWF
TAF
KRWF 181139Z 1812/1912 15005KT P6SM OVC070
     FM190300 16005KT P6SM BKN040=



000
FTUS43 KMPX 181100
TAFAXN
TAF
KAXN 181139Z 1812/1912 15006KT P6SM SKC
     FM181500 15005KT P6SM BKN090
     FM190200 15005KT P6SM OVC040=



000
FTUS43 KMPX 181100
TAFEAU
TAF
KEAU 181139Z 1812/1912 VRB02KT P6SM OVC020
     FM182300 VRB02KT P6SM SCT020 BKN150=



000
FTUS43 KMPX 181100
TAFSTC
TAF
KSTC 181139Z 1812/1912 VRB03KT P6SM SCT020
      TEMPO 1812/1815 BKN020
     FM181600 15004KT P6SM SCT025 BKN090
     FM190600 17003KT P6SM OVC040=



000
FTUS43 KMPX 181000 AAC
TAFMSP
TAF AMD
KMSP 181100Z 1811/1912 VRB03KT P6SM SCT020
      TEMPO 1811/1815 BKN020
     FM181500 14003KT P6SM SCT025 BKN080=



000
FTUS43 KMPX 181000 AAC
TAFMSP
TAF AMD
KMSP 181100Z 1811/1912 VRB03KT P6SM SCT020
      TEMPO 1811/1815 BKN020
     FM181500 14003KT P6SM SCT025 BKN080=



000
FTUS43 KMPX 181000 CCB
TAFSTC
TAF COR
KSTC 181015Z 1810/1906 VRB03KT P6SM SCT020
      TEMPO 1810/1812 BKN020
     FM181800 15004KT P6SM SCT025 BKN090=



000
FTUS43 KMPX 180900 AAA
TAFSTC
TAF AMD
KSTC 180954Z 1810/1906 VRB03KT P6SM BKN020
     FM181800 15004KT P6SM SCT025 BKN090=



000
FTUS43 KMPX 180900 AAB
TAFMSP
TAF AMD
KMSP 180906Z 1809/1912 VRB03KT P6SM BKN020
      TEMPO 1809/1811 FEW020
     FM181500 14003KT P6SM SCT025 BKN080=



000
FTUS43 KMPX 180900 AAB
TAFMSP
TAF AMD
KMSP 180906Z 1809/1912 VRB03KT P6SM BKN020
      TEMPO 1809/1811 FEW020
     FM181500 14003KT P6SM SCT025 BKN080=



000
FTUS43 KMPX 180800 AAA
TAFMSP
TAF AMD
KMSP 180858Z 1809/1912 VRB03KT P6SM BKN020
     FM181500 14003KT P6SM SCT025 BKN080=



000
FTUS43 KMPX 180800 AAA
TAFMSP
TAF AMD
KMSP 180858Z 1809/1912 VRB03KT P6SM BKN020
     FM181500 14003KT P6SM SCT025 BKN080=



000
FTUS43 KMPX 180500 CCA
TAFSTC
TAF COR
KSTC 180541Z 1806/1906 VRB03KT P6SM SCT020
      TEMPO 1806/1808 BKN020
     FM181800 15004KT P6SM SCT025 BKN090=



000
FTUS43 KMPX 180500
TAFSTC
TAF
KSTC 180539Z 1806/1906 VRB03KT P6SM BKN020
     FM181800 15004KT P6SM SCT025 BKN090=



000
FTUS43 KMPX 180500
TAFEAU
TAF
KEAU 180539Z 1806/1906 VRB02KT P6SM OVC020
     FM182100 VRB02KT P6SM SCT020 BKN150=



000
FTUS43 KMPX 180500
TAFRWF
TAF
KRWF 180539Z 1806/1906 VRB05KT P6SM SCT025 BKN070
     FM181200 15005KT P6SM OVC070=



000
FTUS43 KMPX 180500
TAFMSP
TAF
KMSP 180539Z 1806/1912 VRB03KT P6SM BKN020
      TEMPO 1806/1808 SCT020
     FM181500 14003KT P6SM SCT025 BKN080=



000
FTUS43 KMPX 180500
TAFAXN
TAF
KAXN 180539Z 1806/1906 VRB05KT P6SM SCT025
     FM181200 15006KT P6SM BKN090=



000
FTUS43 KMPX 180300 AAA
TAFMSP
TAF AMD
KMSP 180302Z 1803/1906 VRB03KT P6SM FEW025
     FM180545 VRB03KT P6SM BKN020
     FM181500 14003KT P6SM SCT025 BKN200=



000
FTUS43 KMPX 172300
TAFEAU
TAF
KEAU 172339Z 1800/1824 33003KT P6SM BKN025
     FM180900 VRB02KT P6SM SCT025 SCT250=



000
FTUS43 KMPX 172300
TAFMSP
TAF
KMSP 172339Z 1800/1906 VRB03KT P6SM BKN020
     FM180100 VRB03KT P6SM SCT025
     FM181500 14003KT P6SM BKN200=



000
FTUS43 KMPX 172300
TAFSTC
TAF
KSTC 172339Z 1800/1824 VRB03KT P6SM SCT020 SCT250
     FM181800 15004KT P6SM BKN250=



000
FTUS43 KMPX 172300
TAFRWF
TAF
KRWF 172339Z 1800/1824 VRB05KT P6SM SCT250
     FM181200 15005KT P6SM BKN150=



000
FTUS43 KMPX 172300
TAFAXN
TAF
KAXN 172339Z 1800/1824 VRB05KT P6SM SCT250
     FM181200 15004KT P6SM BKN100=



000
FTUS43 KMPX 172000 AAA
TAFMSP
TAF AMD
KMSP 172049Z 1721/1824 36004KT P6SM FEW020
     FM180000 VRB02KT P6SM SCT250
     FM181500 14003KT P6SM BKN200=



000
FTUS43 KMPX 171900 AAA
TAFSTC
TAF AMD
KSTC 171943Z 1720/1818 36007KT P6SM BKN018
     FM172200 VRB03KT P6SM SCT020 SCT250=



000
FTUS43 KMPX 171700
TAFRWF
TAF
KRWF 171724Z 1718/1818 VRB05KT P6SM SCT250
     FM181200 VRB04KT P6SM BKN150=



000
FTUS43 KMPX 171700
TAFEAU
TAF
KEAU 171724Z 1718/1818 33005KT P6SM BKN020
      TEMPO 1718/1720 6SM -SN BKN015
     FM180000 VRB02KT P6SM SCT250=



000
FTUS43 KMPX 171700
TAFSTC
TAF
KSTC 171724Z 1718/1818 34005KT P6SM SCT020 BKN100
      TEMPO 1718/1720 4SM -SN BKN015
     FM172200 VRB03KT P6SM SCT250=



000
FTUS43 KMPX 171700
TAFMSP
TAF
KMSP 171724Z 1718/1824 31006KT P6SM SCT015
      TEMPO 1718/1720 6SM -SN BKN015
     FM172300 34004KT P6SM FEW015 SCT250
     FM180300 VRB03KT P6SM SCT250
     FM181800 14004KT P6SM BKN150=



000
FTUS43 KMPX 171700
TAFAXN
TAF
KAXN 171724Z 1718/1818 VRB05KT P6SM SCT250
     FM181200 VRB04KT P6SM BKN100=



000
FTUS43 KMPX 171500 AAB
TAFMSP
TAF AMD
KMSP 171555Z 1716/1818 30007KT P6SM SCT015
      TEMPO 1716/1718 6SM -SN BKN012
     FM172000 33004KT P6SM SCT020 BKN100
     FM180300 VRB03KT P6SM SCT250=



000
FTUS43 KMPX 171400 CCA
TAFMSP
TAF COR
KMSP 171439Z 1715/1818 30007KT P6SM SCT020
      TEMPO 1715/1718 6SM -SN BKN020
     FM172000 33004KT P6SM SCT020 BKN100
     FM180300 VRB03KT P6SM SCT250=



000
FTUS43 KMPX 171400 AAA
TAFMSP
TAF AMD
KMSP 171431Z 1715/1818 30007KT P6SM BKN020
      TEMPO 1715/1718 6SM -SN
     FM172000 33004KT P6SM SCT020 BKN100
     FM180300 VRB03KT P6SM SCT250=



000
FTUS43 KMPX 171100
TAFMSP
TAF
KMSP 171121Z 1712/1818 30007KT P6SM FEW020
     FM171700 32006KT P6SM BKN020
     FM172200 34004KT P6SM SCT020 BKN100
     FM180300 VRB03KT P6SM SCT250=



000
FTUS43 KMPX 171100
TAFEAU
TAF
KEAU 171121Z 1712/1812 31011KT P6SM OVC019
     FM171500 33005KT P6SM -SHSN BKN020
     FM180000 VRB02KT P6SM BKN100=



000
FTUS43 KMPX 171100
TAFSTC
TAF
KSTC 171121Z 1712/1812 32006KT P6SM FEW015 SCT100
     FM171600 34005KT P6SM SCT020 BKN100
     FM180000 VRB03KT P6SM SCT250=



000
FTUS43 KMPX 171100
TAFAXN
TAF
KAXN 171121Z 1712/1812 32005KT P6SM FEW020 SCT250
     FM171500 VRB05KT P6SM SCT250=



000
FTUS43 KMPX 171100
TAFRWF
TAF
KRWF 171121Z 1712/1812 30008KT P6SM FEW008
     FM171500 VRB05KT P6SM SCT250=



000
FTUS43 KMPX 170900 AAA
TAFAXN
TAF AMD
KAXN 170903Z 1709/1806 32005KT P6SM SCT007 BKN040
      TEMPO 1709/1711 BKN007
     FM171500 01005KT P6SM SCT020 BKN250
     FM172200 05004KT P6SM SCT250
     FM180300 08003KT P6SM SCT250=



000
FTUS43 KMPX 170900 AAA
TAFAXN
TAF AMD
KAXN 170903Z 1709/1806 32005KT P6SM SCT007 BKN040
      TEMPO 1709/1711 BKN007
     FM171500 01005KT P6SM SCT020 BKN250
     FM172200 05004KT P6SM SCT250
     FM180300 08003KT P6SM SCT250=



000
FTUS43 KMPX 170900 AAA
TAFMSP
TAF AMD
KMSP 170900Z 1709/1812 29008KT P6SM SCT020
      TEMPO 1709/1712 P6SM BKN020
     FM171200 32006KT P6SM BKN020
     FM171500 33006KT P6SM SCT025
     FM172200 36005KT P6SM SCT250=



000
FTUS43 KMPX 170900 AAA
TAFMSP
TAF AMD
KMSP 170900Z 1709/1812 29008KT P6SM SCT020
      TEMPO 1709/1712 P6SM BKN020
     FM171200 32006KT P6SM BKN020
     FM171500 33006KT P6SM SCT025
     FM172200 36005KT P6SM SCT250=



000
FTUS43 KMPX 170500
TAFRWF
TAF
KRWF 170520Z 1706/1806 30008KT P6SM SCT015
      TEMPO 1708/1712 BKN015
     FM171800 35006KT P6SM SCT250
     FM180300 32002KT P6SM SCT250=



000
FTUS43 KMPX 170500
TAFMSP
TAF
KMSP 170520Z 1706/1812 29010KT P6SM -SN OVC020
      TEMPO 1706/1710 P6SM NSW SCT020 BKN040
     FM171500 33006KT P6SM SCT025 BKN090
     FM172200 36005KT P6SM SCT250=



000
FTUS43 KMPX 170500
TAFSTC
TAF
KSTC 170520Z 1706/1806 31009KT P6SM SCT020
      TEMPO 1707/1711 P6SM -SN BKN020
     FM171100 32006KT P6SM BKN020
     FM171800 34005KT P6SM SCT020 BKN250
     FM172200 01004KT P6SM FEW025 SCT250
     FM180300 05003KT P6SM SCT250=



000
FTUS43 KMPX 170500
TAFEAU
TAF
KEAU 170520Z 1706/1806 31011KT P6SM -SN OVC019
     FM172100 33005KT P6SM SCT020 BKN030
     FM180000 34003KT P6SM BKN100=



000
FTUS43 KMPX 170500
TAFAXN
TAF
KAXN 170520Z 1706/1806 33005KT P6SM SCT015
      TEMPO 1707/1709 P6SM -SN BKN012
     FM170900 32005KT P6SM BKN012
     FM171500 01005KT P6SM SCT020 BKN250
     FM172200 05004KT P6SM SCT250
     FM180300 08003KT P6SM SCT250=



    US Dept of Commerce
    National Oceanic and Atmospheric Administration
    National Weather Service
    1325 East West Highway
    Silver Spring, MD 20910
    Page Author: NWS Internet Services Team
Disclaimer
Information Quality
Credits
Glossary
Privacy Policy
Freedom of Information Act (FOIA)
About Us
Career Opportunities